Time;durP1;ratioP1;P1;durP2;ratioP2;P2;SDS_P1;SDS_P2;PMS_P1;PMS_P2;Temp;Humidity;BMP_temperature;BMP_pressure;BME280_temperature;BME280_humidity;BME280_pressure;Samples;Min_cycle;Max_cycle;Signal;HPM_P1;HPM_P2
2021/01/20 00:02:21;;;;;;;207.77;71.83;;;-14.50;62.50;;;;;;4975278;28;20031;-76
2021/01/20 00:04:47;;;;;;;222.13;72.73;;;-14.50;62.40;;;;;;4974865;28;20465;-75
2021/01/20 00:07:13;;;;;;;206.37;69.90;;;-14.60;62.30;;;;;;4974995;28;20027;-75
2021/01/20 00:09:40;;;;;;;204.43;71.30;;;-14.60;62.20;;;;;;4974875;28;20412;-75
2021/01/20 00:12:06;;;;;;;203.07;70.97;;;-14.60;62.20;;;;;;4957439;28;20485;-75
2021/01/20 00:14:32;;;;;;;212.73;72.33;;;-14.70;62.30;;;;;;4974952;28;20030;-75
2021/01/20 00:16:58;;;;;;;201.83;69.03;;;-14.70;62.30;;;;;;4974815;28;20037;-75
2021/01/20 00:19:23;;;;;;;190.80;68.07;;;-14.70;62.40;;;;;;4974685;28;20042;-75
2021/01/20 00:21:49;;;;;;;183.93;63.27;;;-14.70;62.30;;;;;;4974672;28;20038;-75
2021/01/20 00:24:15;;;;;;;171.10;56.33;;;-14.70;62.30;;;;;;4974708;28;20517;-75
2021/01/20 00:26:40;;;;;;;156.93;56.43;;;-14.80;62.30;;;;;;4974621;28;20026;-76
2021/01/20 00:29:06;;;;;;;153.80;55.33;;;-14.80;62.40;;;;;;4973587;28;20035;-76
2021/01/20 00:31:32;;;;;;;163.90;55.30;;;-14.80;62.50;;;;;;4974580;28;20030;-75
2021/01/20 00:33:58;;;;;;;154.00;54.67;;;-14.80;62.60;;;;;;4974430;28;20050;-75
2021/01/20 00:36:23;;;;;;;158.83;54.70;;;-14.80;62.60;;;;;;4974802;28;20038;-75
2021/01/20 00:38:50;;;;;;;161.80;55.83;;;-14.80;62.60;;;;;;4957026;28;20066;-75
2021/01/20 00:41:15;;;;;;;165.17;56.27;;;-14.80;62.70;;;;;;4956800;28;20488;-75
2021/01/20 00:43:41;;;;;;;159.30;55.80;;;-14.90;62.60;;;;;;4974625;28;20026;-74
2021/01/20 00:46:07;;;;;;;163.27;57.30;;;-14.80;62.70;;;;;;4974540;28;20786;-75
2021/01/20 00:48:33;;;;;;;177.03;58.43;;;-14.90;62.60;;;;;;4974082;28;20034;-75
2021/01/20 00:50:58;;;;;;;160.90;55.67;;;-14.90;62.60;;;;;;4974017;28;20035;-75
2021/01/20 00:53:25;;;;;;;164.70;56.67;;;-14.90;62.60;;;;;;4974105;28;20038;-75
2021/01/20 00:55:51;;;;;;;164.83;55.63;;;-14.90;62.70;;;;;;4956805;28;20090;-75
2021/01/20 00:58:17;;;;;;;163.30;58.37;;;-14.90;62.70;;;;;;4974150;28;20077;-75
2021/01/20 01:00:43;;;;;;;177.87;58.37;;;-14.90;62.70;;;;;;4973838;28;20054;-75
2021/01/20 01:03:09;;;;;;;149.77;54.40;;;-14.90;62.70;;;;;;4973858;28;20031;-75
2021/01/20 01:05:36;;;;;;;151.53;52.70;;;-15.00;62.70;;;;;;4973839;28;20031;-76
2021/01/20 01:08:01;;;;;;;147.83;54.40;;;-15.00;62.70;;;;;;4973880;28;20057;-76
2021/01/20 01:10:27;;;;;;;146.73;49.87;;;-15.00;62.70;;;;;;4973975;28;20031;-76
2021/01/20 01:12:53;;;;;;;144.60;49.30;;;-15.00;62.70;;;;;;4973880;28;20106;-76
2021/01/20 01:15:19;;;;;;;127.23;46.70;;;-15.00;62.80;;;;;;4968301;28;20110;-75
2021/01/20 01:17:44;;;;;;;132.63;45.17;;;-15.00;62.80;;;;;;4973736;28;20031;-74
2021/01/20 01:20:11;;;;;;;132.50;48.63;;;-15.00;62.80;;;;;;4973566;28;20031;-75
2021/01/20 01:22:37;;;;;;;141.80;48.83;;;-15.10;62.70;;;;;;4972687;28;20027;-75
2021/01/20 01:25:03;;;;;;;144.07;48.93;;;-15.10;62.80;;;;;;4973980;28;20517;-76
2021/01/20 01:27:29;;;;;;;148.20;49.70;;;-15.10;62.80;;;;;;4973837;28;20540;-75
2021/01/20 01:29:55;;;;;;;142.87;48.93;;;-15.10;62.90;;;;;;4973713;28;20058;-76
2021/01/20 01:32:20;;;;;;;158.43;51.63;;;-15.10;62.90;;;;;;4973373;28;20393;-76
2021/01/20 01:34:47;;;;;;;157.83;50.30;;;-15.10;62.80;;;;;;4973380;28;20511;-76
2021/01/20 01:37:12;;;;;;;157.70;53.47;;;-15.10;62.80;;;;;;4973609;28;20023;-75
2021/01/20 01:39:38;;;;;;;148.20;52.23;;;-15.10;62.80;;;;;;4955965;28;20452;-75
2021/01/20 01:42:04;;;;;;;148.83;51.57;;;-15.20;62.80;;;;;;4973112;28;20085;-75
2021/01/20 01:44:33;;;;;;;157.03;52.40;;;-15.20;62.80;;;;;;4973271;28;20019;-75
2021/01/20 01:47:00;;;;;;;140.73;49.03;;;-15.20;62.90;;;;;;4973226;28;20031;-75
2021/01/20 01:49:26;;;;;;;144.47;50.70;;;-15.20;63.00;;;;;;4955458;28;20023;-75
2021/01/20 01:51:54;;;;;;;153.17;50.03;;;-15.20;63.10;;;;;;4973181;28;20115;-75
2021/01/20 01:54:20;;;;;;;153.27;49.30;;;-15.20;63.10;;;;;;4973252;28;20077;-75
2021/01/20 01:56:46;;;;;;;155.70;50.87;;;-15.10;63.10;;;;;;4973124;28;20049;-75
2021/01/20 01:59:13;;;;;;;146.90;48.67;;;-15.10;63.10;;;;;;4972946;28;20022;-75
2021/01/20 02:01:39;;;;;;;161.97;54.23;;;-15.20;63.00;;;;;;4955736;28;20480;-75
2021/01/20 02:04:05;;;;;;;146.63;48.70;;;-15.20;62.90;;;;;;4973109;28;20027;-75
2021/01/20 02:06:30;;;;;;;133.87;45.50;;;-15.20;62.90;;;;;;4972780;28;20027;-75
2021/01/20 02:08:56;;;;;;;116.43;44.70;;;-15.20;62.90;;;;;;4973101;28;20066;-74
2021/01/20 02:11:52;;;;;;;144.80;48.00;;;-15.30;63.00;;;;;;4972977;28;20026;-75
2021/01/20 02:14:26;;;;;;;124.60;44.80;;;-15.30;63.10;;;;;;4973082;28;20031;-75
2021/01/20 02:17:20;;;;;;;133.90;48.07;;;-15.30;63.10;;;;;;4973061;28;20478;-75
2021/01/20 02:19:55;;;;;;;137.70;46.77;;;-15.30;63.20;;;;;;4972955;28;20075;-75
2021/01/20 02:22:28;;;;;;;140.60;47.87;;;-15.20;63.20;;;;;;4973129;28;20082;-76
2021/01/20 02:25:33;;;;;;;131.13;45.80;;;-15.20;63.20;;;;;;4973372;28;20414;-76
2021/01/20 02:28:22;;;;;;;145.30;49.80;;;-15.30;63.20;;;;;;4917116;29;20036;-76
2021/01/20 02:30:47;;;;;;;142.57;46.53;;;-15.20;63.30;;;;;;4932906;29;20031;-76
2021/01/20 02:33:24;;;;;;;132.83;45.87;;;-15.20;63.30;;;;;;4958124;28;20058;-76
2021/01/20 02:35:57;;;;;;;136.80;48.73;;;-15.20;63.30;;;;;;4973200;28;20023;-76
2021/01/20 02:38:25;;;;;;;139.23;46.43;;;-15.30;63.20;;;;;;4973179;28;20039;-77
2021/01/20 02:40:51;;;;;;;134.07;46.43;;;-15.30;63.20;;;;;;4973236;28;20030;-76
2021/01/20 02:43:24;;;;;;;141.00;46.30;;;-15.30;63.30;;;;;;4973233;28;20023;-77
2021/01/20 02:45:50;;;;;;;142.47;45.67;;;-15.30;63.20;;;;;;4973123;28;20023;-76
2021/01/20 02:48:16;;;;;;;121.83;44.27;;;-15.30;63.40;;;;;;4973041;28;20042;-76
2021/01/20 02:50:42;;;;;;;120.60;45.17;;;-15.30;63.30;;;;;;4973256;28;20055;-76
2021/01/20 02:53:21;;;;;;;122.20;43.67;;;-15.30;63.30;;;;;;4974908;28;20478;-75
2021/01/20 02:56:00;;;;;;;125.23;43.03;;;-15.30;63.30;;;;;;4976898;28;20041;-76
2021/01/20 02:58:31;;;;;;;139.37;44.70;;;-15.40;63.20;;;;;;4976788;28;20132;-76
2021/01/20 03:00:59;;;;;;;121.10;44.00;;;-15.40;63.20;;;;;;4976569;28;20473;-76
2021/01/20 03:03:26;;;;;;;129.20;45.83;;;-15.40;63.30;;;;;;4976257;28;20023;-77
2021/01/20 03:05:53;;;;;;;133.30;45.50;;;-15.40;63.40;;;;;;4958999;28;20027;-76
2021/01/20 03:08:19;;;;;;;121.87;43.33;;;-15.40;63.40;;;;;;4976282;28;20027;-76
2021/01/20 03:10:45;;;;;;;120.43;43.10;;;-15.40;63.40;;;;;;4959217;28;20510;-77
2021/01/20 03:13:13;;;;;;;115.53;41.73;;;-15.40;63.40;;;;;;4976576;28;20078;-76
2021/01/20 03:15:40;;;;;;;131.27;46.03;;;-15.40;63.50;;;;;;4976129;28;20114;-76
2021/01/20 03:18:06;;;;;;;133.47;45.00;;;-15.40;63.50;;;;;;4958695;28;20371;-76
2021/01/20 03:20:32;;;;;;;120.33;43.83;;;-15.40;63.60;;;;;;4975699;28;20028;-75
2021/01/20 03:22:58;;;;;;;117.70;43.97;;;-15.40;63.60;;;;;;4975895;28;20536;-75
2021/01/20 03:25:24;;;;;;;127.60;45.10;;;-15.40;63.60;;;;;;4975868;28;20106;-74
2021/01/20 03:27:51;;;;;;;123.07;44.00;;;-15.40;63.70;;;;;;4976034;28;20050;-75
2021/01/20 03:30:18;;;;;;;122.87;45.03;;;-15.40;63.60;;;;;;4975845;28;20034;-75
2021/01/20 03:32:44;;;;;;;125.90;42.67;;;-15.40;63.60;;;;;;4975616;28;20394;-75
2021/01/20 03:35:10;;;;;;;129.63;42.60;;;-15.40;63.60;;;;;;4958657;28;20090;-75
2021/01/20 03:37:36;;;;;;;103.73;36.73;;;-15.40;63.60;;;;;;4975750;28;20480;-75
2021/01/20 03:40:04;;;;;;;98.30;34.73;;;-15.40;63.80;;;;;;4975399;28;20109;-75
2021/01/20 03:42:30;;;;;;;105.33;36.47;;;-15.40;63.80;;;;;;4975440;28;20026;-75
2021/01/20 03:44:55;;;;;;;111.80;35.90;;;-15.40;63.90;;;;;;4975425;28;20027;-76
2021/01/20 03:47:21;;;;;;;108.47;37.70;;;-15.30;63.90;;;;;;4975430;28;20023;-76
2021/01/20 03:49:47;;;;;;;104.93;36.60;;;-15.30;63.90;;;;;;4975397;28;20109;-75
2021/01/20 03:52:12;;;;;;;114.33;38.97;;;-15.30;63.80;;;;;;4975195;28;20031;-75
2021/01/20 03:54:38;;;;;;;106.00;39.23;;;-15.30;63.80;;;;;;4975282;28;20070;-76
2021/01/20 03:57:04;;;;;;;111.60;39.70;;;-15.40;63.80;;;;;;4975204;28;20063;-75
2021/01/20 03:59:33;;;;;;;98.83;35.87;;;-15.40;63.70;;;;;;4975055;28;20022;-75
2021/01/20 04:01:59;;;;;;;113.10;37.57;;;-15.40;63.80;;;;;;4974987;28;20577;-75
2021/01/20 04:04:26;;;;;;;102.17;34.97;;;-15.40;63.80;;;;;;4974799;28;20174;-75
2021/01/20 04:06:52;;;;;;;93.93;36.37;;;-15.40;63.80;;;;;;4974938;28;20019;-75
2021/01/20 04:09:17;;;;;;;112.40;43.67;;;-15.40;64.00;;;;;;4974943;28;20492;-76
2021/01/20 04:11:43;;;;;;;113.63;41.57;;;-15.40;64.10;;;;;;4975051;28;20031;-76
2021/01/20 04:14:09;;;;;;;120.60;44.90;;;-15.40;64.00;;;;;;4975104;28;20030;-76
2021/01/20 04:16:35;;;;;;;120.97;41.43;;;-15.40;64.00;;;;;;4957346;28;20027;-76
2021/01/20 04:19:02;;;;;;;108.83;38.00;;;-15.40;63.80;;;;;;4974943;28;20031;-76
2021/01/20 04:21:29;;;;;;;115.63;41.60;;;-15.40;63.80;;;;;;4974801;28;20094;-76
2021/01/20 04:23:55;;;;;;;117.17;39.40;;;-15.40;63.90;;;;;;4974877;28;20022;-76
2021/01/20 04:26:20;;;;;;;104.97;36.40;;;-15.40;64.00;;;;;;4974952;28;20377;-76
2021/01/20 04:28:47;;;;;;;97.13;34.77;;;-15.40;64.20;;;;;;4974866;28;20023;-76
2021/01/20 04:31:13;;;;;;;86.07;33.47;;;-15.40;64.30;;;;;;4974741;28;20533;-77
2021/01/20 04:33:39;;;;;;;102.37;35.33;;;-15.40;64.30;;;;;;4974498;28;20050;-76
2021/01/20 04:36:05;;;;;;;104.30;36.83;;;-15.30;64.30;;;;;;4974881;28;20434;-77
2021/01/20 04:38:31;;;;;;;101.17;35.53;;;-15.30;64.30;;;;;;4974941;28;20711;-77
2021/01/20 04:40:57;;;;;;;95.90;34.83;;;-15.30;64.20;;;;;;4974722;28;20031;-77
2021/01/20 04:43:24;;;;;;;94.87;33.37;;;-15.30;64.30;;;;;;4974461;28;20018;-77
2021/01/20 04:45:51;;;;;;;94.60;34.93;;;-15.30;64.30;;;;;;4972791;28;20018;-77
2021/01/20 04:48:19;;;;;;;102.50;34.53;;;-15.30;64.30;;;;;;4957013;28;20078;-76
2021/01/20 04:50:47;;;;;;;90.80;35.03;;;-15.30;64.20;;;;;;4958034;28;20033;-76
2021/01/20 04:53:14;;;;;;;103.87;37.30;;;-15.30;64.20;;;;;;4976360;28;20030;-76
2021/01/20 04:55:44;;;;;;;103.77;39.67;;;-15.40;64.20;;;;;;4957594;28;20054;-76
2021/01/20 04:58:11;;;;;;;108.43;39.20;;;-15.40;64.10;;;;;;4956794;28;20034;-77
2021/01/20 05:00:38;;;;;;;122.97;40.60;;;-15.40;64.00;;;;;;4973543;28;20106;-77
2021/01/20 05:03:09;;;;;;;116.63;41.27;;;-15.40;64.00;;;;;;4974056;28;20026;-77
2021/01/20 05:05:35;;;;;;;111.27;38.97;;;-15.40;64.00;;;;;;4973988;28;20022;-76
2021/01/20 05:08:05;;;;;;;108.17;39.97;;;-15.50;63.90;;;;;;4973878;28;20026;-77
2021/01/20 05:10:32;;;;;;;110.07;40.13;;;-15.50;63.90;;;;;;4973767;28;20023;-75
2021/01/20 05:12:58;;;;;;;109.57;39.63;;;-15.60;63.80;;;;;;4973462;28;20026;-75
2021/01/20 05:15:35;;;;;;;110.97;39.73;;;-15.60;63.90;;;;;;4955439;28;20430;-75
2021/01/20 05:18:02;;;;;;;107.40;39.90;;;-15.60;64.00;;;;;;4973180;28;20026;-76
2021/01/20 05:20:30;;;;;;;109.17;38.97;;;-15.60;64.10;;;;;;4973308;28;20027;-76
2021/01/20 05:23:01;;;;;;;112.93;39.03;;;-15.60;64.10;;;;;;4973387;28;20026;-76
2021/01/20 05:25:34;;;;;;;110.90;39.37;;;-15.60;64.10;;;;;;4955869;28;20385;-76
2021/01/20 05:28:27;;;;;;;119.60;41.80;;;-15.70;64.10;;;;;;4972575;28;20031;-76
2021/01/20 05:30:54;;;;;;;106.07;40.33;;;-15.70;64.10;;;;;;4972919;28;20019;-76
2021/01/20 05:33:21;;;;;;;116.77;40.53;;;-15.70;64.10;;;;;;4972648;28;20053;-76
2021/01/20 05:36:04;;;;;;;111.60;38.90;;;-15.70;64.10;;;;;;4972959;28;20030;-76
2021/01/20 05:38:36;;;;;;;119.10;42.87;;;-15.70;64.20;;;;;;4973201;28;20027;-76
2021/01/20 05:41:19;;;;;;;124.90;42.70;;;-15.70;64.10;;;;;;4955673;28;20503;-76
2021/01/20 05:43:45;;;;;;;102.83;38.60;;;-15.70;64.20;;;;;;4972818;28;20449;-76
2021/01/20 05:46:12;;;;;;;118.90;41.00;;;-15.70;64.40;;;;;;4972805;28;20098;-76
2021/01/20 05:48:48;;;;;;;113.90;42.30;;;-15.70;64.70;;;;;;4955776;28;20038;-76
2021/01/20 05:51:14;;;;;;;108.37;38.43;;;-15.50;65.10;;;;;;4972923;28;20151;-76
2021/01/20 05:53:54;;;;;;;121.93;40.67;;;-15.40;65.40;;;;;;4955278;28;20027;-75
2021/01/20 05:56:30;;;;;;;112.23;39.63;;;-15.30;65.30;;;;;;4972505;28;20041;-75
2021/01/20 05:58:57;;;;;;;103.00;38.93;;;-15.20;65.00;;;;;;4972816;28;20031;-76
2021/01/20 06:01:23;;;;;;;104.47;38.13;;;-15.10;65.00;;;;;;4972584;28;20031;-75
2021/01/20 06:03:50;;;;;;;118.67;39.20;;;-15.00;65.40;;;;;;4954810;28;20117;-75
2021/01/20 06:06:17;;;;;;;120.43;39.97;;;-14.90;65.40;;;;;;4972479;28;20035;-76
2021/01/20 06:08:43;;;;;;;105.33;36.37;;;-14.80;65.30;;;;;;4972340;28;20473;-75
2021/01/20 06:11:09;;;;;;;110.27;40.33;;;-14.70;65.40;;;;;;4972750;28;20473;-76
2021/01/20 06:13:36;;;;;;;110.40;39.50;;;-14.50;66.00;;;;;;4955582;28;20031;-75
2021/01/20 06:16:13;;;;;;;124.53;41.77;;;-14.30;66.50;;;;;;4955039;28;20089;-76
2021/01/20 06:18:47;;;;;;;123.30;44.37;;;-13.80;67.60;;;;;;4973278;28;20083;-77
2021/01/20 06:21:18;;;;;;;117.53;41.57;;;-13.40;68.30;;;;;;4955059;28;20129;-75
2021/01/20 06:24:06;;;;;;;113.87;42.03;;;-12.80;68.80;;;;;;4954652;28;20095;-75
2021/01/20 06:26:40;;;;;;;117.07;43.03;;;-12.00;70.00;;;;;;4973597;28;20443;-75
2021/01/20 06:29:08;;;;;;;110.10;42.90;;;-11.30;70.40;;;;;;4961789;28;20474;-76
2021/01/20 06:31:41;;;;;;;117.97;46.80;;;-10.60;70.50;;;;;;4983726;28;20027;-76
2021/01/20 06:34:07;;;;;;;115.70;43.47;;;-10.00;70.30;;;;;;4962520;28;20477;-76
2021/01/20 06:36:39;;;;;;;108.03;42.33;;;-9.40;70.10;;;;;;4981411;28;20132;-75
2021/01/20 06:39:27;;;;;;;95.95;40.22;;;-8.80;69.60;;;;;;4967095;28;20039;-75
2021/01/20 06:41:54;;;;;;;109.80;41.10;;;-8.30;69.30;;;;;;4966489;28;20034;-76
2021/01/20 06:44:20;;;;;;;103.00;41.90;;;-7.80;68.70;;;;;;4962481;28;20027;-78
2021/01/20 06:46:59;;;;;;;99.07;38.55;;;-7.30;68.50;;;;;;4959726;28;20106;-78
2021/01/20 06:49:32;;;;;;;91.32;38.10;;;-6.80;68.00;;;;;;4980952;28;20023;-78
2021/01/20 06:52:14;;;;;;;93.45;39.53;;;-6.40;67.40;;;;;;4981599;28;20414;-77
2021/01/20 06:54:47;;;;;;;99.03;39.97;;;-6.00;66.60;;;;;;4977320;28;20058;-77
2021/01/20 06:57:29;;;;;;;95.32;41.22;;;-5.70;65.80;;;;;;4978251;28;20049;-77
2021/01/20 07:00:07;;;;;;;100.10;42.10;;;-5.40;65.00;;;;;;4962037;28;20085;-76
2021/01/20 07:02:33;;;;;;;92.75;41.33;;;-5.20;64.30;;;;;;4985992;28;20473;-77
2021/01/20 07:05:00;;;;;;;92.53;40.33;;;-5.00;63.70;;;;;;4994988;28;20354;-78
2021/01/20 07:07:48;;;;;;;94.93;40.65;;;-4.80;63.10;;;;;;4977517;28;20023;-78
2021/01/20 07:10:15;;;;;;;93.50;40.53;;;-4.60;62.40;;;;;;4976034;28;20078;-77
2021/01/20 07:13:20;;;;;;;94.95;42.45;;;-4.50;61.70;;;;;;4977158;28;20046;-78
2021/01/20 07:15:47;;;;;;;93.90;40.50;;;-4.40;60.70;;;;;;4975834;28;20493;-77
2021/01/20 07:18:15;;;;;;;90.90;38.67;;;-4.30;60.00;;;;;;4976114;28;20019;-78
2021/01/20 07:20:42;;;;;;;88.75;39.08;;;-4.20;59.30;;;;;;4976914;28;20023;-78
2021/01/20 07:23:08;;;;;;;90.13;40.42;;;-4.20;58.70;;;;;;4959891;28;20027;-76
2021/01/20 07:25:34;;;;;;;92.47;41.95;;;-4.10;58.20;;;;;;4977571;28;20071;-77
2021/01/20 07:27:59;;;;;;;81.50;36.25;;;-4.00;57.70;;;;;;4982863;28;20417;-77
2021/01/20 07:30:26;;;;;;;82.93;37.78;;;-3.90;57.40;;;;;;4995999;28;20081;-78
2021/01/20 07:32:52;;;;;;;96.78;43.78;;;-3.80;57.10;;;;;;4991029;28;20058;-78
2021/01/20 07:35:18;;;;;;;82.13;39.47;;;-3.60;56.90;;;;;;4975218;28;20405;-76
2021/01/20 07:37:45;;;;;;;85.78;40.78;;;-3.50;56.50;;;;;;4975058;28;20018;-78
2021/01/20 07:40:11;;;;;;;98.13;46.08;;;-3.20;56.30;;;;;;4975060;28;20027;-77
2021/01/20 07:42:41;;;;;;;107.97;45.17;;;-3.00;55.80;;;;;;4975348;28;20034;-77
2021/01/20 07:45:07;;;;;;;99.07;43.83;;;-2.80;55.40;;;;;;4975547;28;20054;-77
2021/01/20 07:47:46;;;;;;;89.00;41.35;;;-2.60;55.00;;;;;;4975297;28;20069;-78
2021/01/20 07:50:12;;;;;;;87.15;38.08;;;-2.40;54.30;;;;;;4975062;28;20386;-77
2021/01/20 07:52:41;;;;;;;103.88;44.13;;;-2.20;54.20;;;;;;4975027;28;20119;-76
2021/01/20 07:55:17;;;;;;;93.35;40.17;;;-1.90;53.70;;;;;;4975470;28;20084;-77
2021/01/20 07:57:43;;;;;;;84.07;35.78;;;-1.80;53.10;;;;;;4973811;28;20086;-76
2021/01/20 08:00:11;;;;;;;83.43;38.13;;;-1.50;53.00;;;;;;4975121;28;20062;-77
2021/01/20 08:02:49;;;;;;;77.18;37.17;;;-1.40;52.50;;;;;;4969147;28;20030;-77
2021/01/20 08:05:15;;;;;;;82.28;37.92;;;-1.20;51.80;;;;;;4963424;28;20034;-77
2021/01/20 08:07:41;;;;;;;82.47;40.38;;;-1.00;51.50;;;;;;4958289;28;20089;-77
2021/01/20 08:10:20;;;;;;;91.57;41.60;;;-0.90;51.00;;;;;;4974096;28;20035;-78
2021/01/20 08:12:48;;;;;;;81.60;40.63;;;-0.80;50.30;;;;;;4974770;28;20058;-77
2021/01/20 08:15:15;;;;;;;95.53;45.38;;;-0.70;50.00;;;;;;4974434;28;20102;-77
2021/01/20 08:17:42;;;;;;;85.72;40.80;;;-0.60;49.60;;;;;;4974598;28;20497;-78
2021/01/20 08:20:11;;;;;;;89.68;42.90;;;-0.60;49.20;;;;;;4975808;28;20019;-77
2021/01/20 08:22:39;;;;;;;84.88;39.33;;;-0.50;48.80;;;;;;4977520;28;20050;-77
2021/01/20 08:25:08;;;;;;;80.22;38.30;;;-0.40;48.60;;;;;;4975606;28;20038;-77
2021/01/20 08:27:37;;;;;;;77.65;37.38;;;-0.30;48.90;;;;;;4957604;28;20585;-77
2021/01/20 08:30:04;;;;;;;86.65;37.78;;;-0.20;47.90;;;;;;4957499;28;20537;-77
2021/01/20 08:32:32;;;;;;;90.68;39.30;;;-0.20;47.60;;;;;;4974605;28;20118;-76
2021/01/20 08:34:59;;;;;;;87.28;40.83;;;0.00;47.50;;;;;;4974870;28;20133;-77
2021/01/20 08:37:33;;;;;;;85.22;41.15;;;0.10;47.20;;;;;;4975342;28;20034;-77
2021/01/20 08:40:13;;;;;;;95.95;43.80;;;0.10;46.50;;;;;;4957141;28;20062;-76
2021/01/20 08:42:44;;;;;;;89.70;42.72;;;0.30;46.20;;;;;;4974221;28;20504;-77
2021/01/20 08:45:10;;;;;;;87.32;41.40;;;0.30;45.90;;;;;;4974469;28;20081;-76
2021/01/20 08:48:02;;;;;;;87.88;40.92;;;0.40;45.70;;;;;;4974622;28;20102;-76
2021/01/20 08:50:27;;;;;;;99.13;44.08;;;0.50;45.30;;;;;;4973874;28;20087;-79
2021/01/20 08:52:56;;;;;;;87.60;43.60;;;0.60;45.30;;;;;;4957187;28;20122;-77
2021/01/20 08:55:23;;;;;;;79.28;39.70;;;0.70;44.90;;;;;;4974357;28;20043;-77
2021/01/20 08:58:28;;;;;;;77.70;39.90;;;0.70;44.60;;;;;;4955976;28;20027;-77
2021/01/20 09:01:04;;;;;;;73.10;36.22;;;0.80;44.00;;;;;;4956280;28;20051;-77
2021/01/20 09:03:34;;;;;;;76.07;35.80;;;0.90;44.20;;;;;;4974049;28;20030;-77
2021/01/20 09:06:01;;;;;;;75.47;37.17;;;1.10;44.10;;;;;;4972569;28;20027;-77
2021/01/20 09:08:29;;;;;;;81.75;39.25;;;1.20;43.80;;;;;;4973507;28;20026;-78
2021/01/20 09:10:58;;;;;;;72.82;38.00;;;1.30;43.60;;;;;;4956674;28;20093;-78
2021/01/20 09:13:24;;;;;;;73.15;38.28;;;1.40;43.40;;;;;;4973576;28;20022;-78
2021/01/20 09:15:51;;;;;;;82.72;39.90;;;1.60;43.10;;;;;;4973714;28;20027;-77
2021/01/20 09:18:18;;;;;;;77.47;39.75;;;1.70;42.80;;;;;;4957391;28;20034;-77
2021/01/20 09:20:44;;;;;;;75.97;38.60;;;1.90;42.70;;;;;;4957069;28;20069;-77
2021/01/20 09:23:10;;;;;;;70.28;38.80;;;2.00;42.40;;;;;;4974049;28;20029;-76
2021/01/20 09:25:36;;;;;;;87.90;43.05;;;2.20;42.10;;;;;;4974256;28;20482;-78
2021/01/20 09:28:04;;;;;;;83.68;39.75;;;2.30;41.80;;;;;;4973668;28;20031;-77
2021/01/20 09:30:30;;;;;;;77.90;39.28;;;2.40;41.50;;;;;;4973992;28;20109;-78
2021/01/20 09:32:56;;;;;;;77.47;38.22;;;2.50;41.60;;;;;;4973789;28;20501;-78
2021/01/20 09:35:22;;;;;;;79.45;38.70;;;2.60;41.30;;;;;;4973864;28;20026;-79
2021/01/20 09:37:49;;;;;;;76.63;38.47;;;2.80;41.10;;;;;;4973396;28;20051;-78
2021/01/20 09:40:18;;;;;;;76.28;38.10;;;3.00;41.10;;;;;;4973416;28;20054;-76
2021/01/20 09:42:48;;;;;;;67.82;35.95;;;3.10;40.80;;;;;;4971990;28;20026;-78
2021/01/20 09:45:16;;;;;;;72.65;36.53;;;3.30;40.50;;;;;;4971678;28;20473;-79
2021/01/20 09:47:43;;;;;;;73.38;36.38;;;3.40;40.30;;;;;;4956283;28;20093;-77
2021/01/20 09:50:11;;;;;;;67.38;35.03;;;3.40;39.90;;;;;;4956769;28;20817;-78
2021/01/20 09:52:37;;;;;;;81.00;36.22;;;3.30;39.60;;;;;;4973364;28;20158;-78
2021/01/20 09:55:06;;;;;;;64.20;34.17;;;3.10;39.50;;;;;;4972492;28;20026;-79
2021/01/20 09:57:31;;;;;;;69.53;33.42;;;2.90;39.40;;;;;;4972355;28;20041;-79
2021/01/20 09:59:57;;;;;;;74.70;36.45;;;2.70;39.40;;;;;;4973649;28;20702;-78
2021/01/20 10:02:28;;;;;;;66.53;36.17;;;2.50;39.40;;;;;;4956452;28;20486;-79
2021/01/20 10:04:54;;;;;;;66.95;34.03;;;2.20;39.50;;;;;;4973974;28;20022;-78
2021/01/20 10:07:20;;;;;;;62.45;33.13;;;2.10;39.70;;;;;;4973025;28;20023;-79
2021/01/20 10:09:46;;;;;;;74.60;34.00;;;2.00;39.50;;;;;;4973730;28;20027;-79
2021/01/20 10:12:14;;;;;;;63.53;33.17;;;1.80;39.10;;;;;;4973483;28;20141;-78
2021/01/20 10:14:44;;;;;;;68.43;33.35;;;1.60;39.40;;;;;;4973620;28;20095;-79
2021/01/20 10:17:09;;;;;;;68.57;31.77;;;1.50;39.70;;;;;;4972857;28;20082;-78
2021/01/20 10:19:35;;;;;;;66.28;32.75;;;1.60;39.70;;;;;;4972892;28;20030;-78
2021/01/20 10:22:01;;;;;;;62.63;31.33;;;1.70;39.70;;;;;;4972471;28;20478;-79
2021/01/20 10:24:27;;;;;;;60.47;30.02;;;2.00;39.60;;;;;;4972922;28;20095;-79
2021/01/20 10:26:53;;;;;;;58.75;30.73;;;2.30;39.50;;;;;;4955017;28;20030;-78
2021/01/20 10:29:19;;;;;;;61.97;30.63;;;2.60;39.30;;;;;;4972436;28;20019;-78
2021/01/20 10:31:51;;;;;;;71.72;32.20;;;3.00;39.10;;;;;;4972384;28;20098;-80
2021/01/20 10:34:16;;;;;;;60.60;30.80;;;3.20;38.60;;;;;;4972822;28;20054;-79
2021/01/20 10:36:48;;;;;;;61.53;30.40;;;3.50;38.50;;;;;;4972828;28;20101;-79
2021/01/20 10:39:16;;;;;;;68.28;30.55;;;3.70;38.30;;;;;;4972806;28;20396;-78
2021/01/20 10:41:42;;;;;;;63.67;30.27;;;3.90;38.20;;;;;;4972435;28;20034;-76
2021/01/20 10:44:08;;;;;;;124.30;36.70;;;4.10;37.80;;;;;;4972654;28;20027;-78
2021/01/20 10:46:33;;;;;;;53.65;28.80;;;4.30;37.70;;;;;;4972802;28;20577;-79
2021/01/20 10:49:02;;;;;;;55.85;29.88;;;4.40;37.60;;;;;;4972322;28;20106;-79
2021/01/20 10:51:29;;;;;;;59.80;29.70;;;4.60;37.30;;;;;;4972310;28;20077;-79
2021/01/20 10:53:54;;;;;;;67.43;30.70;;;4.80;37.20;;;;;;4972283;28;20334;-80
2021/01/20 10:56:20;;;;;;;55.97;29.02;;;4.90;36.90;;;;;;4972242;28;20039;-81
2021/01/20 10:58:46;;;;;;;56.28;28.25;;;5.00;36.70;;;;;;4971174;28;20146;-79
2021/01/20 11:01:12;;;;;;;59.83;26.88;;;5.10;36.60;;;;;;4972706;28;20891;-76
2021/01/20 11:03:39;;;;;;;58.17;31.27;;;5.20;37.10;;;;;;4972176;28;20031;-77
2021/01/20 11:06:06;;;;;;;55.85;30.27;;;5.30;36.20;;;;;;4960639;28;20027;-77
2021/01/20 11:08:32;;;;;;;56.85;29.92;;;5.20;36.10;;;;;;4933069;29;20066;-77
2021/01/20 11:10:57;;;;;;;53.78;27.70;;;5.10;36.00;;;;;;4952813;29;20032;-77
2021/01/20 11:13:23;;;;;;;58.80;30.00;;;4.70;35.70;;;;;;4953538;28;20497;-76
2021/01/20 11:15:50;;;;;;;53.20;27.23;;;4.30;35.80;;;;;;4956265;29;20024;-77
2021/01/20 11:18:17;;;;;;;58.15;28.75;;;3.90;35.80;;;;;;4955986;29;20029;-76
2021/01/20 11:20:44;;;;;;;51.58;25.65;;;3.60;36.00;;;;;;4956120;29;20027;-77
2021/01/20 11:23:11;;;;;;;51.35;26.40;;;3.40;36.10;;;;;;4954767;29;20019;-76
2021/01/20 11:25:44;;;;;;;44.72;23.75;;;3.30;36.20;;;;;;4954863;29;20106;-77
2021/01/20 11:28:10;;;;;;;51.22;24.98;;;3.40;36.30;;;;;;4956021;29;20030;-77
2021/01/20 11:30:36;;;;;;;44.70;24.95;;;3.60;36.20;;;;;;4955897;29;20098;-78
2021/01/20 11:33:02;;;;;;;49.90;25.25;;;3.90;36.20;;;;;;4938848;29;20761;-78
2021/01/20 11:35:28;;;;;;;40.25;23.92;;;4.20;36.00;;;;;;4955719;29;20110;-78
2021/01/20 11:37:56;;;;;;;53.38;25.42;;;4.50;35.80;;;;;;4954357;29;20379;-77
2021/01/20 11:40:29;;;;;;;43.15;24.48;;;4.80;35.60;;;;;;4955737;29;20027;-78
2021/01/20 11:42:59;;;;;;;45.78;23.92;;;5.00;35.20;;;;;;4955513;29;20026;-79
2021/01/20 11:45:33;;;;;;;77.53;27.35;;;5.30;35.20;;;;;;4955523;29;20035;-80
2021/01/20 11:48:00;;;;;;;48.47;24.92;;;5.40;35.00;;;;;;4956141;29;20027;-79
2021/01/20 11:50:26;;;;;;;71.43;26.35;;;5.40;35.30;;;;;;4956232;29;20030;-79
2021/01/20 11:52:53;;;;;;;45.60;25.42;;;5.30;35.10;;;;;;4954239;29;20127;-77
2021/01/20 11:55:23;;;;;;;57.97;24.48;;;4.90;35.00;;;;;;4955449;29;20019;-77
2021/01/20 11:57:49;;;;;;;56.63;27.38;;;4.40;34.80;;;;;;4938604;29;20056;-79
2021/01/20 12:00:16;;;;;;;50.28;24.50;;;3.80;34.60;;;;;;4955419;29;20498;-78
2021/01/20 12:02:42;;;;;;;49.17;24.80;;;3.30;34.70;;;;;;4955803;29;20043;-77
2021/01/20 12:05:11;;;;;;;89.35;29.27;;;2.70;34.70;;;;;;4955445;29;20102;-79
2021/01/20 12:07:37;;;;;;;64.40;25.90;;;2.20;35.00;;;;;;4955434;29;20052;-78
2021/01/20 12:10:05;;;;;;;47.90;24.98;;;1.80;35.20;;;;;;4955741;29;20027;-78
2021/01/20 12:12:30;;;;;;;64.45;25.13;;;1.40;35.50;;;;;;4939091;29;20030;-76
2021/01/20 12:14:56;;;;;;;49.40;23.90;;;0.90;35.70;;;;;;4955153;29;20031;-77
2021/01/20 12:17:22;;;;;;;51.75;24.27;;;0.50;36.00;;;;;;4955547;29;20031;-78
2021/01/20 12:19:48;;;;;;;55.88;25.38;;;0.10;36.20;;;;;;4956118;29;20385;-79
2021/01/20 12:22:13;;;;;;;50.88;22.27;;;-0.30;36.50;;;;;;4955746;29;20041;-79
2021/01/20 12:24:39;;;;;;;49.25;21.58;;;-0.60;36.80;;;;;;4938976;29;20019;-79
2021/01/20 12:27:05;;;;;;;50.03;22.70;;;-0.90;37.00;;;;;;4954640;29;20020;-78
2021/01/20 12:29:31;;;;;;;63.30;23.10;;;-1.30;37.20;;;;;;4954490;29;20028;-77